createdAt,value
2018-04-28T00:12:32.055Z,78.90
2018-04-28T01:18:42.375Z,80.80
2018-04-28T01:34:12.759Z,81.30
2018-04-28T01:36:41.755Z,81.90
2018-04-28T01:39:29.948Z,82.10
2018-04-28T01:42:01.944Z,82.40
2018-04-28T01:44:36.027Z,83.00
2018-04-28T01:47:04.974Z,83.10
2018-04-28T01:49:33.761Z,83.30
2018-04-28T01:52:05.836Z,84.10
2018-04-28T01:54:38.838Z,84.70
2018-04-28T01:57:06.360Z,85.00
2018-04-28T01:59:46.397Z,84.80
2018-04-28T02:02:15.433Z,84.80
2018-04-28T02:07:44.074Z,84.60
2018-04-28T02:10:11.752Z,84.80
2018-04-28T02:15:31.695Z,84.70
2018-04-28T02:23:50.522Z,85.50
2018-04-28T02:29:29.248Z,85.60
2018-04-28T02:32:18.414Z,86.50
2018-04-28T02:34:57.582Z,88.90
2018-04-28T02:37:41.690Z,90.00
2018-04-28T02:40:12.931Z,90.00
2018-04-28T02:42:46.166Z,90.00
2018-04-28T02:48:32.453Z,89.80
2018-04-28T02:51:03.908Z,90.20
2018-04-28T02:56:47.890Z,89.90
2018-04-28T02:59:32.025Z,88.70
2018-04-28T03:05:13.008Z,88.70
2018-04-28T03:07:49.406Z,89.00
2018-04-28T03:10:37.544Z,89.20
2018-04-28T05:17:24.943Z,91.20
2018-04-28T05:20:07.638Z,91.00
2018-04-28T05:22:50.751Z,90.00
2018-04-28T05:25:26.908Z,90.00
2018-04-28T05:27:58.967Z,90.00
2018-04-28T05:30:42.072Z,90.00
2018-04-28T05:33:22.214Z,90.00
2018-04-28T05:39:33.103Z,89.80
2018-04-28T05:42:21.229Z,90.00
2018-04-28T05:47:59.334Z,90.00
2018-04-28T05:50:52.534Z,90.20
2018-04-28T05:53:44.053Z,90.10
2018-04-28T05:56:17.335Z,90.20
2018-04-28T05:58:49.691Z,90.30
2018-04-28T06:01:29.117Z,89.60
2018-04-28T06:04:21.434Z,89.60
2018-04-28T06:07:01.632Z,88.40
2018-04-28T06:15:51.758Z,86.70
2018-04-28T06:21:14.295Z,83.70
2018-04-28T07:12:50.540Z,77.70
2018-04-28T07:15:18.071Z,78.90
2018-04-28T07:17:54.811Z,78.80
2018-04-28T07:23:16.387Z,78.40
2018-04-28T07:25:47.130Z,77.90
2018-04-28T07:28:14.671Z,77.50
2018-04-28T07:30:42.226Z,77.50
2018-04-28T07:33:09.750Z,76.60
2018-04-28T07:35:37.288Z,75.50
2018-04-28T07:38:04.819Z,75.40
2018-04-28T07:40:32.379Z,75.30
2018-04-28T07:42:59.919Z,74.40
2018-04-28T07:45:27.459Z,74.20
2018-04-28T07:47:54.998Z,74.20
2018-04-28T07:50:22.555Z,73.80
2018-04-28T07:52:53.260Z,73.80
2018-04-28T07:55:20.808Z,74.90
2018-04-28T07:57:48.343Z,73.90
2018-04-28T08:00:15.908Z,73.90
2018-04-28T08:02:43.484Z,73.40
2018-04-28T08:05:11.015Z,73.60
2018-04-28T08:07:39.344Z,73.10
2018-04-28T08:10:07.852Z,73.00
2018-04-28T08:12:35.385Z,73.50
2018-04-28T08:17:56.490Z,67.80
2018-04-28T08:20:27.250Z,70.20
2018-04-28T08:22:55.403Z,70.40
2018-04-28T08:25:22.949Z,69.40
2018-04-28T08:27:50.497Z,65.20
2018-04-28T08:30:18.841Z,62.70
2018-04-28T08:32:46.550Z,62.50
2018-04-28T08:35:14.863Z,66.90
2018-04-28T08:37:45.602Z,66.80
2018-04-28T08:40:13.155Z,67.20
2018-04-28T08:42:40.752Z,66.90
2018-04-28T08:45:08.308Z,66.90
2018-04-28T08:47:35.850Z,66.20
2018-04-28T08:50:03.395Z,65.20
2018-04-28T08:52:30.922Z,65.20
2018-04-28T08:54:58.468Z,63.40
2018-04-28T08:57:26.771Z,58.30
2018-04-28T09:00:05.933Z,58.20
2018-04-28T09:02:33.635Z,57.20
2018-04-28T09:05:01.155Z,56.50
2018-04-28T09:07:39.441Z,55.30
2018-04-28T09:10:12.933Z,54.50
2018-04-28T09:12:43.222Z,55.30
2018-04-28T09:15:11.747Z,54.20
2018-04-28T09:17:39.816Z,54.40
2018-04-28T09:20:07.345Z,52.20
2018-04-28T09:28:19.027Z,48.90
2018-04-28T09:30:46.559Z,52.80
2018-04-28T09:33:14.099Z,54.00
2018-04-28T09:35:42.403Z,54.10
2018-04-28T09:38:09.937Z,54.00
2018-04-28T09:40:41.182Z,49.50
2018-04-28T09:43:09.497Z,47.20
2018-04-28T09:45:37.018Z,47.10
2018-04-28T09:48:04.550Z,48.40
2018-04-28T09:50:32.092Z,48.30
2018-04-28T09:52:59.623Z,47.70
2018-04-28T09:55:27.149Z,46.50
2018-04-28T09:58:06.804Z,45.50
2018-04-28T10:00:35.240Z,45.50
2018-04-28T10:03:05.726Z,44.80
2018-04-28T10:05:34.020Z,43.70
2018-04-28T10:08:01.564Z,43.60
2018-04-28T10:10:29.114Z,43.40
2018-04-28T10:22:02.766Z,44.10
2018-04-28T11:16:20.879Z,37.20
2018-04-28T11:18:49.180Z,39.70
2018-04-28T11:21:16.716Z,39.60
2018-04-28T11:23:51.558Z,40.30
2018-04-28T11:26:19.121Z,40.40
2018-04-28T11:28:46.649Z,41.00
2018-04-28T11:31:14.183Z,41.00
2018-04-28T11:33:41.777Z,39.40
2018-04-28T11:36:09.411Z,40.00
2018-04-28T11:38:36.960Z,40.00
2018-04-28T11:41:04.603Z,39.20
2018-04-28T11:43:32.282Z,39.00
2018-04-28T11:45:59.788Z,40.00
2018-04-28T11:48:28.085Z,42.90
2018-04-28T11:50:58.940Z,42.80
2018-04-28T11:53:26.471Z,42.40
2018-04-28T11:55:54.776Z,43.70
2018-04-28T11:58:22.308Z,43.70
2018-04-28T12:00:49.884Z,43.50
2018-04-28T12:03:17.447Z,42.60
2018-04-28T12:05:45.700Z,42.30
2018-04-28T12:08:16.308Z,42.30
2018-04-28T12:10:43.837Z,41.80
2018-04-28T13:13:52.087Z,45.80
2018-04-28T13:16:19.660Z,45.70
2018-04-28T13:18:47.200Z,46.80
2018-04-28T13:21:15.463Z,46.80
2018-04-28T13:23:43.017Z,46.60
2018-04-28T13:26:10.586Z,47.70
2018-04-28T13:28:41.340Z,48.50
2018-04-28T13:31:08.882Z,49.90
2018-04-28T13:33:36.434Z,49.90
2018-04-28T13:36:03.971Z,48.70
2018-04-28T13:38:31.510Z,48.50
2018-04-28T13:40:59.055Z,48.40
2018-04-28T13:43:26.582Z,49.00
2018-04-28T13:45:54.115Z,50.90
2018-04-28T13:48:21.649Z,51.30
2018-04-28T13:50:49.946Z,53.30
2018-04-28T13:53:17.486Z,53.30
2018-04-28T13:55:45.026Z,54.40
2018-04-28T13:58:15.684Z,56.60
2018-04-28T14:00:43.224Z,56.50
2018-04-28T14:03:10.751Z,57.70
2018-04-28T14:05:38.301Z,59.20
2018-04-28T14:08:05.845Z,59.50
2018-04-28T14:10:33.395Z,57.20
2018-04-28T14:18:58.203Z,53.90
2018-04-28T14:21:39.803Z,50.90
2018-04-28T15:15:37.097Z,62.90
2018-04-28T15:18:12.027Z,61.90
2018-04-28T15:20:39.604Z,62.00
2018-04-28T15:26:03.494Z,60.10
2018-04-28T15:28:34.341Z,59.50
2018-04-28T15:31:02.783Z,59.60
2018-04-28T15:33:30.402Z,59.00
2018-04-28T15:35:58.004Z,60.00
2018-04-28T15:38:25.595Z,59.50
2018-04-28T15:40:53.147Z,59.80
2018-04-28T15:43:21.682Z,59.70
2018-04-28T15:45:49.256Z,58.10
2018-04-28T15:48:16.812Z,57.80
2018-04-28T15:50:44.492Z,56.40
2018-04-28T15:53:12.138Z,57.20
2018-04-28T15:55:42.881Z,55.90
2018-04-28T15:58:10.425Z,56.30
2018-04-28T16:00:37.967Z,56.20
2018-04-28T16:03:05.520Z,56.40
2018-04-28T16:05:34.025Z,56.30
2018-04-28T16:08:01.650Z,55.10
2018-04-28T16:10:29.146Z,54.50
2018-04-28T16:24:44.968Z,56.20
2018-04-28T16:27:12.501Z,56.80
2018-04-28T16:29:40.047Z,57.50
2018-04-28T16:32:07.602Z,57.10
2018-04-28T16:34:35.198Z,57.00
2018-04-28T16:37:02.731Z,58.30
2018-04-28T16:39:30.524Z,58.70
2018-04-28T16:41:58.061Z,60.00
2018-04-28T16:44:26.308Z,59.80
2018-04-28T16:46:57.960Z,60.20
2018-04-28T16:49:27.186Z,61.30
2018-04-28T16:51:55.679Z,62.20
2018-04-28T16:54:23.205Z,62.20
2018-04-28T16:56:50.787Z,63.30
2018-04-28T16:59:18.330Z,63.50
2018-04-28T17:01:46.023Z,64.50
2018-04-28T17:04:16.639Z,63.20
2018-04-28T17:06:44.230Z,63.90
2018-04-28T17:09:12.309Z,64.90
2018-04-28T17:11:41.156Z,64.40
2018-04-28T17:22:52.615Z,62.40
2018-04-28T17:25:20.159Z,64.60
2018-04-28T17:27:47.729Z,65.80
2018-04-28T17:30:15.263Z,65.10
2018-04-28T17:32:42.811Z,65.90
2018-04-28T17:35:11.114Z,67.20
2018-04-28T17:37:38.650Z,67.20
2018-04-28T17:40:06.190Z,68.00
2018-04-28T17:42:34.502Z,68.20
2018-04-28T17:45:02.044Z,68.10
2018-04-28T17:47:32.804Z,70.40
2018-04-28T17:50:00.347Z,71.30
2018-04-28T17:52:27.892Z,71.80
2018-04-28T17:54:56.195Z,71.60
2018-04-28T17:57:23.734Z,71.50
2018-04-28T17:59:52.039Z,71.20
2018-04-28T18:02:19.592Z,71.10
2018-04-28T18:04:51.018Z,70.20
2018-04-28T18:07:19.366Z,70.40
2018-04-28T18:09:47.609Z,70.30
2018-04-28T18:21:27.864Z,72.10
2018-04-28T18:56:23.282Z,74.10
2018-04-28T19:11:45.964Z,74.00
2018-04-28T19:17:07.615Z,77.30
2018-04-28T19:19:35.800Z,78.30
2018-04-28T19:22:06.591Z,79.10
2018-04-28T19:24:34.213Z,78.90
2018-04-28T19:27:01.847Z,78.30
2018-04-28T19:29:29.421Z,78.20
2018-04-28T19:31:56.983Z,78.90
2018-04-28T19:34:24.544Z,79.20
2018-04-28T19:36:52.103Z,79.80
2018-04-28T19:39:21.578Z,79.70
2018-04-28T19:41:49.119Z,82.00
2018-04-28T19:44:16.670Z,84.60
2018-04-28T19:46:44.224Z,85.30
2018-04-28T19:49:11.824Z,86.30
2018-04-28T19:51:42.579Z,86.30
2018-04-28T19:54:10.115Z,87.50
2018-04-28T19:56:37.729Z,87.90
2018-04-28T19:59:05.284Z,87.30
2018-04-28T20:01:32.857Z,87.10
2018-04-28T20:04:00.413Z,86.80
2018-04-28T20:06:27.964Z,87.80
2018-04-28T20:08:55.638Z,87.00
2018-04-28T20:11:23.313Z,86.50
2018-04-28T20:13:51.208Z,88.00
2018-04-28T20:16:19.180Z,89.20
2018-04-28T20:18:47.104Z,90.60
2018-04-28T20:21:28.183Z,91.90
2018-04-28T20:26:52.318Z,92.40
2018-04-28T20:29:19.856Z,92.50
2018-04-28T20:31:47.421Z,91.60
2018-04-28T20:34:14.972Z,91.40
2018-04-28T20:36:42.521Z,90.80
2018-04-28T20:39:10.084Z,90.90
2018-04-28T20:41:37.627Z,91.00
2018-04-28T20:44:05.177Z,91.80
2018-04-28T20:46:32.727Z,91.50
2018-04-28T20:49:00.308Z,91.70
2018-04-28T20:51:31.108Z,91.60
2018-04-28T20:53:58.634Z,91.20
2018-04-28T20:56:26.179Z,91.20
2018-04-28T20:58:53.724Z,91.20
2018-04-28T21:01:21.294Z,91.90
2018-04-28T21:03:48.842Z,92.00
2018-04-28T21:06:16.415Z,92.20
2018-04-28T21:08:43.966Z,92.10
2018-04-28T21:11:12.060Z,92.30
2018-04-28T22:17:02.961Z,93.10
2018-04-28T23:14:27.758Z,93.20
2018-04-28T23:20:04.298Z,93.20
2018-04-28T23:25:28.399Z,93.40
2018-04-28T23:27:55.937Z,93.30
2018-04-28T23:30:23.475Z,93.90
2018-04-28T23:32:51.118Z,93.90
2018-04-28T23:35:18.660Z,95.20
2018-04-28T23:37:46.950Z,94.90
2018-04-28T23:40:14.492Z,94.80
2018-04-28T23:42:42.026Z,94.60
2018-04-28T23:45:09.633Z,94.20
2018-04-28T23:47:37.167Z,94.00
2018-04-28T23:50:05.477Z,93.90
2018-04-28T23:52:33.017Z,93.90
2018-04-28T23:55:00.563Z,93.90
2018-04-28T23:57:32.087Z,94.10
2018-04-28T23:59:59.623Z,94.10
